sensor_id;sensor_type;location;lat;lon;timestamp;P1;durP1;ratioP1;P2;durP2;ratioP2
27642;SDS011;15053;48.618;10.024;2023-04-08T00:00:49;23.73;;;16.70;;
27642;SDS011;15053;48.618;10.024;2023-04-08T00:03:15;28.42;;;17.10;;
27642;SDS011;15053;48.618;10.024;2023-04-08T00:05:42;28.88;;;18.63;;
27642;SDS011;15053;48.618;10.024;2023-04-08T00:08:09;24.95;;;17.00;;
27642;SDS011;15053;48.618;10.024;2023-04-08T00:10:35;32.38;;;18.98;;
27642;SDS011;15053;48.618;10.024;2023-04-08T00:13:01;27.65;;;18.05;;
27642;SDS011;15053;48.618;10.024;2023-04-08T00:15:28;27.50;;;18.52;;
27642;SDS011;15053;48.618;10.024;2023-04-08T00:17:54;27.88;;;18.23;;
27642;SDS011;15053;48.618;10.024;2023-04-08T00:20:22;30.67;;;18.27;;
27642;SDS011;15053;48.618;10.024;2023-04-08T00:22:49;27.90;;;18.48;;
27642;SDS011;15053;48.618;10.024;2023-04-08T00:25:15;27.17;;;17.50;;
27642;SDS011;15053;48.618;10.024;2023-04-08T00:27:42;28.40;;;19.40;;
27642;SDS011;15053;48.618;10.024;2023-04-08T00:30:08;28.60;;;18.20;;
27642;SDS011;15053;48.618;10.024;2023-04-08T00:32:36;33.65;;;19.90;;
27642;SDS011;15053;48.618;10.024;2023-04-08T00:35:03;29.73;;;19.92;;
27642;SDS011;15053;48.618;10.024;2023-04-08T00:37:30;30.20;;;18.90;;
27642;SDS011;15053;48.618;10.024;2023-04-08T00:39:57;30.58;;;19.52;;
27642;SDS011;15053;48.618;10.024;2023-04-08T00:42:23;29.90;;;19.30;;
27642;SDS011;15053;48.618;10.024;2023-04-08T00:44:50;30.55;;;19.20;;
27642;SDS011;15053;48.618;10.024;2023-04-08T00:47:17;32.35;;;19.42;;
27642;SDS011;15053;48.618;10.024;2023-04-08T00:49:44;33.03;;;19.90;;
27642;SDS011;15053;48.618;10.024;2023-04-08T00:52:11;35.25;;;19.50;;
27642;SDS011;15053;48.618;10.024;2023-04-08T00:54:38;32.17;;;20.02;;
27642;SDS011;15053;48.618;10.024;2023-04-08T00:57:05;33.70;;;19.88;;
27642;SDS011;15053;48.618;10.024;2023-04-08T00:59:32;34.72;;;20.98;;
27642;SDS011;15053;48.618;10.024;2023-04-08T01:02:13;35.15;;;21.17;;
27642;SDS011;15053;48.618;10.024;2023-04-08T01:04:55;35.35;;;21.30;;
27642;SDS011;15053;48.618;10.024;2023-04-08T01:07:31;30.05;;;19.20;;
27642;SDS011;15053;48.618;10.024;2023-04-08T01:10:12;33.45;;;19.85;;
27642;SDS011;15053;48.618;10.024;2023-04-08T01:12:49;35.28;;;20.67;;
27642;SDS011;15053;48.618;10.024;2023-04-08T01:15:21;43.28;;;21.95;;
27642;SDS011;15053;48.618;10.024;2023-04-08T01:17:54;33.22;;;20.15;;
27642;SDS011;15053;48.618;10.024;2023-04-08T01:20:23;38.03;;;21.70;;
27642;SDS011;15053;48.618;10.024;2023-04-08T01:25:29;35.05;;;22.05;;
27642;SDS011;15053;48.618;10.024;2023-04-08T01:27:58;36.03;;;22.05;;
27642;SDS011;15053;48.618;10.024;2023-04-08T01:30:25;39.58;;;22.20;;
27642;SDS011;15053;48.618;10.024;2023-04-08T01:32:56;38.63;;;22.10;;
27642;SDS011;15053;48.618;10.024;2023-04-08T01:35:24;37.47;;;22.73;;
27642;SDS011;15053;48.618;10.024;2023-04-08T01:37:51;37.85;;;22.77;;
27642;SDS011;15053;48.618;10.024;2023-04-08T01:40:20;38.25;;;21.90;;
27642;SDS011;15053;48.618;10.024;2023-04-08T01:42:47;36.63;;;23.17;;
27642;SDS011;15053;48.618;10.024;2023-04-08T01:45:15;41.30;;;22.98;;
27642;SDS011;15053;48.618;10.024;2023-04-08T01:47:43;58.00;;;23.50;;
27642;SDS011;15053;48.618;10.024;2023-04-08T01:50:14;39.45;;;21.83;;
27642;SDS011;15053;48.618;10.024;2023-04-08T01:52:42;39.33;;;22.98;;
27642;SDS011;15053;48.618;10.024;2023-04-08T01:55:12;55.17;;;24.25;;
27642;SDS011;15053;48.618;10.024;2023-04-08T01:57:39;43.85;;;23.70;;
27642;SDS011;15053;48.618;10.024;2023-04-08T02:00:10;36.83;;;20.93;;
27642;SDS011;15053;48.618;10.024;2023-04-08T02:02:49;37.65;;;20.77;;
27642;SDS011;15053;48.618;10.024;2023-04-08T02:05:17;39.78;;;21.45;;
27642;SDS011;15053;48.618;10.024;2023-04-08T02:07:45;38.75;;;21.15;;
27642;SDS011;15053;48.618;10.024;2023-04-08T02:10:13;36.08;;;19.98;;
27642;SDS011;15053;48.618;10.024;2023-04-08T02:12:40;30.02;;;18.30;;
27642;SDS011;15053;48.618;10.024;2023-04-08T02:15:09;27.95;;;17.55;;
27642;SDS011;15053;48.618;10.024;2023-04-08T02:17:44;27.80;;;17.48;;
27642;SDS011;15053;48.618;10.024;2023-04-08T02:20:23;24.00;;;16.33;;
27642;SDS011;15053;48.618;10.024;2023-04-08T02:25:40;25.08;;;15.52;;
27642;SDS011;15053;48.618;10.024;2023-04-08T02:28:09;26.67;;;16.17;;
27642;SDS011;15053;48.618;10.024;2023-04-08T02:30:42;24.58;;;15.20;;
27642;SDS011;15053;48.618;10.024;2023-04-08T02:33:13;21.33;;;13.73;;
27642;SDS011;15053;48.618;10.024;2023-04-08T02:35:42;21.10;;;13.02;;
27642;SDS011;15053;48.618;10.024;2023-04-08T02:38:10;19.00;;;12.45;;
27642;SDS011;15053;48.618;10.024;2023-04-08T02:40:36;18.88;;;12.27;;
27642;SDS011;15053;48.618;10.024;2023-04-08T02:43:03;19.15;;;11.35;;
27642;SDS011;15053;48.618;10.024;2023-04-08T02:45:30;17.40;;;10.82;;
27642;SDS011;15053;48.618;10.024;2023-04-08T02:47:58;12.43;;;8.70;;
27642;SDS011;15053;48.618;10.024;2023-04-08T02:50:26;14.52;;;9.55;;
27642;SDS011;15053;48.618;10.024;2023-04-08T02:52:52;14.23;;;8.55;;
27642;SDS011;15053;48.618;10.024;2023-04-08T02:55:19;13.32;;;9.38;;
27642;SDS011;15053;48.618;10.024;2023-04-08T02:57:45;14.05;;;9.13;;
27642;SDS011;15053;48.618;10.024;2023-04-08T03:00:13;14.45;;;9.50;;
27642;SDS011;15053;48.618;10.024;2023-04-08T03:02:40;13.40;;;8.43;;
27642;SDS011;15053;48.618;10.024;2023-04-08T03:05:07;15.00;;;9.60;;
27642;SDS011;15053;48.618;10.024;2023-04-08T03:07:34;14.45;;;8.82;;
27642;SDS011;15053;48.618;10.024;2023-04-08T03:10:01;12.65;;;8.32;;
27642;SDS011;15053;48.618;10.024;2023-04-08T03:12:28;13.43;;;8.23;;
27642;SDS011;15053;48.618;10.024;2023-04-08T03:14:55;16.13;;;9.73;;
27642;SDS011;15053;48.618;10.024;2023-04-08T03:17:21;13.48;;;8.93;;
27642;SDS011;15053;48.618;10.024;2023-04-08T03:19:48;12.73;;;8.25;;
27642;SDS011;15053;48.618;10.024;2023-04-08T03:22:14;14.88;;;10.20;;
27642;SDS011;15053;48.618;10.024;2023-04-08T03:24:41;13.82;;;9.40;;
27642;SDS011;15053;48.618;10.024;2023-04-08T03:27:07;14.18;;;8.75;;
27642;SDS011;15053;48.618;10.024;2023-04-08T03:29:33;12.43;;;7.90;;
27642;SDS011;15053;48.618;10.024;2023-04-08T03:32:00;11.00;;;7.47;;
27642;SDS011;15053;48.618;10.024;2023-04-08T03:34:27;12.43;;;7.40;;
27642;SDS011;15053;48.618;10.024;2023-04-08T03:36:53;11.82;;;7.55;;
27642;SDS011;15053;48.618;10.024;2023-04-08T03:39:20;11.32;;;7.78;;
27642;SDS011;15053;48.618;10.024;2023-04-08T03:41:46;14.70;;;9.15;;
27642;SDS011;15053;48.618;10.024;2023-04-08T03:44:13;15.48;;;9.32;;
27642;SDS011;15053;48.618;10.024;2023-04-08T03:46:39;14.93;;;9.55;;
27642;SDS011;15053;48.618;10.024;2023-04-08T03:49:06;14.27;;;9.05;;
27642;SDS011;15053;48.618;10.024;2023-04-08T03:51:32;15.43;;;10.52;;
27642;SDS011;15053;48.618;10.024;2023-04-08T03:53:59;17.48;;;11.73;;
27642;SDS011;15053;48.618;10.024;2023-04-08T03:56:25;18.30;;;11.93;;
27642;SDS011;15053;48.618;10.024;2023-04-08T03:58:52;19.75;;;12.15;;
27642;SDS011;15053;48.618;10.024;2023-04-08T04:01:18;21.30;;;12.63;;
27642;SDS011;15053;48.618;10.024;2023-04-08T04:03:44;21.15;;;12.98;;
27642;SDS011;15053;48.618;10.024;2023-04-08T04:06:11;19.95;;;12.30;;
27642;SDS011;15053;48.618;10.024;2023-04-08T04:08:38;21.70;;;11.93;;
27642;SDS011;15053;48.618;10.024;2023-04-08T04:11:04;22.92;;;12.98;;
27642;SDS011;15053;48.618;10.024;2023-04-08T04:13:31;19.83;;;12.57;;
27642;SDS011;15053;48.618;10.024;2023-04-08T04:15:57;25.92;;;13.82;;
27642;SDS011;15053;48.618;10.024;2023-04-08T04:18:24;26.50;;;14.68;;
27642;SDS011;15053;48.618;10.024;2023-04-08T04:20:50;26.60;;;15.82;;
27642;SDS011;15053;48.618;10.024;2023-04-08T04:23:17;29.05;;;15.82;;
27642;SDS011;15053;48.618;10.024;2023-04-08T04:25:43;25.90;;;14.57;;
27642;SDS011;15053;48.618;10.024;2023-04-08T04:28:10;29.23;;;16.98;;
27642;SDS011;15053;48.618;10.024;2023-04-08T04:30:39;39.33;;;18.08;;
27642;SDS011;15053;48.618;10.024;2023-04-08T04:33:06;59.33;;;21.30;;
27642;SDS011;15053;48.618;10.024;2023-04-08T04:35:32;94.40;;;23.55;;
27642;SDS011;15053;48.618;10.024;2023-04-08T04:37:59;150.20;;;26.50;;
27642;SDS011;15053;48.618;10.024;2023-04-08T04:40:25;56.58;;;20.73;;
27642;SDS011;15053;48.618;10.024;2023-04-08T04:42:52;55.80;;;23.38;;
27642;SDS011;15053;48.618;10.024;2023-04-08T04:45:18;51.78;;;21.75;;
27642;SDS011;15053;48.618;10.024;2023-04-08T04:47:45;55.85;;;21.30;;
27642;SDS011;15053;48.618;10.024;2023-04-08T04:50:11;46.38;;;21.88;;
27642;SDS011;15053;48.618;10.024;2023-04-08T04:52:37;42.33;;;22.67;;
27642;SDS011;15053;48.618;10.024;2023-04-08T04:55:04;47.05;;;22.00;;
27642;SDS011;15053;48.618;10.024;2023-04-08T04:57:31;46.22;;;24.38;;
27642;SDS011;15053;48.618;10.024;2023-04-08T04:59:57;53.33;;;24.40;;
27642;SDS011;15053;48.618;10.024;2023-04-08T05:02:24;54.17;;;24.50;;
27642;SDS011;15053;48.618;10.024;2023-04-08T05:04:50;47.85;;;23.35;;
27642;SDS011;15053;48.618;10.024;2023-04-08T05:07:18;46.83;;;22.88;;
27642;SDS011;15053;48.618;10.024;2023-04-08T05:09:45;48.80;;;23.08;;
27642;SDS011;15053;48.618;10.024;2023-04-08T05:12:11;44.92;;;23.70;;
27642;SDS011;15053;48.618;10.024;2023-04-08T05:14:38;48.15;;;23.25;;
27642;SDS011;15053;48.618;10.024;2023-04-08T05:17:06;53.20;;;22.70;;
27642;SDS011;15053;48.618;10.024;2023-04-08T05:19:32;102.40;;;25.15;;
27642;SDS011;15053;48.618;10.024;2023-04-08T05:21:59;184.68;;;29.25;;
27642;SDS011;15053;48.618;10.024;2023-04-08T05:24:26;241.30;;;33.50;;
27642;SDS011;15053;48.618;10.024;2023-04-08T05:26:52;91.07;;;25.73;;
27642;SDS011;15053;48.618;10.024;2023-04-08T05:29:18;66.50;;;23.90;;
27642;SDS011;15053;48.618;10.024;2023-04-08T05:31:46;44.05;;;22.92;;
27642;SDS011;15053;48.618;10.024;2023-04-08T05:34:13;48.22;;;23.80;;
27642;SDS011;15053;48.618;10.024;2023-04-08T05:36:40;44.45;;;22.08;;
27642;SDS011;15053;48.618;10.024;2023-04-08T05:39:07;46.08;;;22.20;;
27642;SDS011;15053;48.618;10.024;2023-04-08T05:41:34;40.80;;;21.02;;
27642;SDS011;15053;48.618;10.024;2023-04-08T05:44:00;46.65;;;22.52;;
27642;SDS011;15053;48.618;10.024;2023-04-08T05:46:26;43.42;;;22.13;;
27642;SDS011;15053;48.618;10.024;2023-04-08T05:48:53;41.70;;;21.23;;
27642;SDS011;15053;48.618;10.024;2023-04-08T05:51:19;42.67;;;21.85;;
27642;SDS011;15053;48.618;10.024;2023-04-08T05:53:46;45.08;;;22.10;;
27642;SDS011;15053;48.618;10.024;2023-04-08T05:56:12;43.03;;;22.15;;
27642;SDS011;15053;48.618;10.024;2023-04-08T05:58:39;44.85;;;22.80;;
27642;SDS011;15053;48.618;10.024;2023-04-08T06:01:05;49.97;;;22.63;;
27642;SDS011;15053;48.618;10.024;2023-04-08T06:03:32;43.80;;;22.45;;
27642;SDS011;15053;48.618;10.024;2023-04-08T06:05:59;50.65;;;23.00;;
27642;SDS011;15053;48.618;10.024;2023-04-08T06:08:25;46.42;;;22.42;;
27642;SDS011;15053;48.618;10.024;2023-04-08T06:10:52;47.33;;;22.65;;
27642;SDS011;15053;48.618;10.024;2023-04-08T06:13:18;46.22;;;23.08;;
27642;SDS011;15053;48.618;10.024;2023-04-08T06:15:47;44.13;;;22.42;;
27642;SDS011;15053;48.618;10.024;2023-04-08T06:18:16;47.00;;;22.70;;
27642;SDS011;15053;48.618;10.024;2023-04-08T06:20:42;56.80;;;23.58;;
27642;SDS011;15053;48.618;10.024;2023-04-08T06:23:09;56.58;;;24.40;;
27642;SDS011;15053;48.618;10.024;2023-04-08T06:25:35;68.22;;;23.65;;
27642;SDS011;15053;48.618;10.024;2023-04-08T06:28:02;50.90;;;22.08;;
27642;SDS011;15053;48.618;10.024;2023-04-08T06:30:28;64.30;;;23.92;;
27642;SDS011;15053;48.618;10.024;2023-04-08T06:32:55;67.88;;;24.02;;
27642;SDS011;15053;48.618;10.024;2023-04-08T06:35:21;110.05;;;25.02;;
27642;SDS011;15053;48.618;10.024;2023-04-08T06:37:48;95.72;;;23.83;;
27642;SDS011;15053;48.618;10.024;2023-04-08T06:40:14;51.47;;;21.65;;
27642;SDS011;15053;48.618;10.024;2023-04-08T06:42:41;82.05;;;23.85;;
27642;SDS011;15053;48.618;10.024;2023-04-08T06:45:28;51.13;;;22.98;;
27642;SDS011;15053;48.618;10.024;2023-04-08T06:47:54;43.25;;;21.25;;
27642;SDS011;15053;48.618;10.024;2023-04-08T06:50:21;44.75;;;21.45;;
27642;SDS011;15053;48.618;10.024;2023-04-08T06:52:48;45.50;;;21.90;;
27642;SDS011;15053;48.618;10.024;2023-04-08T06:55:14;76.53;;;23.45;;
27642;SDS011;15053;48.618;10.024;2023-04-08T06:57:41;55.53;;;22.17;;
27642;SDS011;15053;48.618;10.024;2023-04-08T07:00:07;45.83;;;22.42;;
27642;SDS011;15053;48.618;10.024;2023-04-08T07:02:35;39.67;;;20.60;;
27642;SDS011;15053;48.618;10.024;2023-04-08T07:05:01;44.47;;;21.40;;
27642;SDS011;15053;48.618;10.024;2023-04-08T07:07:29;42.75;;;21.00;;
27642;SDS011;15053;48.618;10.024;2023-04-08T07:09:55;43.38;;;20.95;;
27642;SDS011;15053;48.618;10.024;2023-04-08T07:12:22;40.40;;;21.17;;
27642;SDS011;15053;48.618;10.024;2023-04-08T07:14:48;40.72;;;21.98;;
27642;SDS011;15053;48.618;10.024;2023-04-08T07:17:15;45.70;;;23.60;;
27642;SDS011;15053;48.618;10.024;2023-04-08T07:19:41;41.25;;;21.67;;
27642;SDS011;15053;48.618;10.024;2023-04-08T07:22:09;41.40;;;22.92;;
27642;SDS011;15053;48.618;10.024;2023-04-08T07:24:35;36.78;;;19.48;;
27642;SDS011;15053;48.618;10.024;2023-04-08T07:27:02;34.22;;;18.08;;
27642;SDS011;15053;48.618;10.024;2023-04-08T07:29:28;31.33;;;18.35;;
27642;SDS011;15053;48.618;10.024;2023-04-08T07:31:55;33.22;;;18.40;;
27642;SDS011;15053;48.618;10.024;2023-04-08T07:34:21;33.05;;;19.05;;
27642;SDS011;15053;48.618;10.024;2023-04-08T07:36:47;33.22;;;16.90;;
27642;SDS011;15053;48.618;10.024;2023-04-08T07:39:14;29.95;;;17.85;;
27642;SDS011;15053;48.618;10.024;2023-04-08T07:41:40;33.78;;;18.70;;
27642;SDS011;15053;48.618;10.024;2023-04-08T07:44:07;34.35;;;19.52;;
27642;SDS011;15053;48.618;10.024;2023-04-08T07:46:36;35.22;;;18.60;;
27642;SDS011;15053;48.618;10.024;2023-04-08T07:49:03;36.28;;;19.42;;
27642;SDS011;15053;48.618;10.024;2023-04-08T07:51:30;34.47;;;19.23;;
27642;SDS011;15053;48.618;10.024;2023-04-08T07:53:56;31.88;;;18.27;;
27642;SDS011;15053;48.618;10.024;2023-04-08T07:56:23;28.80;;;17.05;;
27642;SDS011;15053;48.618;10.024;2023-04-08T07:58:49;30.88;;;18.23;;
27642;SDS011;15053;48.618;10.024;2023-04-08T08:01:19;32.83;;;18.70;;
27642;SDS011;15053;48.618;10.024;2023-04-08T08:03:50;34.58;;;18.38;;
27642;SDS011;15053;48.618;10.024;2023-04-08T08:06:18;37.03;;;19.40;;
27642;SDS011;15053;48.618;10.024;2023-04-08T08:08:44;32.65;;;20.02;;
27642;SDS011;15053;48.618;10.024;2023-04-08T08:11:11;33.00;;;19.33;;
27642;SDS011;15053;48.618;10.024;2023-04-08T08:13:38;34.90;;;20.42;;
27642;SDS011;15053;48.618;10.024;2023-04-08T08:16:04;32.80;;;18.80;;
27642;SDS011;15053;48.618;10.024;2023-04-08T08:18:34;29.88;;;18.48;;
27642;SDS011;15053;48.618;10.024;2023-04-08T08:21:01;27.23;;;17.30;;
27642;SDS011;15053;48.618;10.024;2023-04-08T08:23:28;29.33;;;17.58;;
27642;SDS011;15053;48.618;10.024;2023-04-08T08:25:58;30.33;;;17.80;;
27642;SDS011;15053;48.618;10.024;2023-04-08T08:28:29;28.98;;;18.60;;
27642;SDS011;15053;48.618;10.024;2023-04-08T08:30:55;28.58;;;18.17;;
27642;SDS011;15053;48.618;10.024;2023-04-08T08:33:22;28.65;;;18.55;;
27642;SDS011;15053;48.618;10.024;2023-04-08T08:35:49;38.70;;;22.27;;
27642;SDS011;15053;48.618;10.024;2023-04-08T08:38:17;43.30;;;23.67;;
27642;SDS011;15053;48.618;10.024;2023-04-08T08:40:44;47.58;;;25.60;;
27642;SDS011;15053;48.618;10.024;2023-04-08T08:43:10;26.88;;;17.30;;
27642;SDS011;15053;48.618;10.024;2023-04-08T08:45:41;26.92;;;17.30;;
27642;SDS011;15053;48.618;10.024;2023-04-08T08:48:07;27.73;;;17.83;;
27642;SDS011;15053;48.618;10.024;2023-04-08T08:50:34;26.73;;;17.17;;
27642;SDS011;15053;48.618;10.024;2023-04-08T08:53:01;25.90;;;16.17;;
27642;SDS011;15053;48.618;10.024;2023-04-08T08:55:31;24.63;;;14.82;;
27642;SDS011;15053;48.618;10.024;2023-04-08T08:58:07;27.20;;;16.40;;
27642;SDS011;15053;48.618;10.024;2023-04-08T09:00:34;24.73;;;16.25;;
27642;SDS011;15053;48.618;10.024;2023-04-08T09:03:14;21.35;;;14.90;;
27642;SDS011;15053;48.618;10.024;2023-04-08T09:13:47;21.33;;;15.13;;
27642;SDS011;15053;48.618;10.024;2023-04-08T09:16:14;19.08;;;14.20;;
27642;SDS011;15053;48.618;10.024;2023-04-08T09:18:43;19.25;;;14.27;;
27642;SDS011;15053;48.618;10.024;2023-04-08T09:21:12;22.83;;;14.70;;
27642;SDS011;15053;48.618;10.024;2023-04-08T09:23:43;23.30;;;15.75;;
27642;SDS011;15053;48.618;10.024;2023-04-08T09:26:15;20.80;;;14.63;;
27642;SDS011;15053;48.618;10.024;2023-04-08T09:28:56;25.90;;;15.85;;
27642;SDS011;15053;48.618;10.024;2023-04-08T09:31:23;29.95;;;19.75;;
27642;SDS011;15053;48.618;10.024;2023-04-08T09:33:53;25.52;;;15.27;;
27642;SDS011;15053;48.618;10.024;2023-04-08T09:36:21;24.45;;;15.68;;
27642;SDS011;15053;48.618;10.024;2023-04-08T09:38:48;22.15;;;13.73;;
27642;SDS011;15053;48.618;10.024;2023-04-08T09:41:15;22.48;;;16.08;;
27642;SDS011;15053;48.618;10.024;2023-04-08T09:43:43;27.02;;;20.88;;
27642;SDS011;15053;48.618;10.024;2023-04-08T09:46:17;25.58;;;21.52;;
27642;SDS011;15053;48.618;10.024;2023-04-08T09:49:01;22.05;;;17.02;;
27642;SDS011;15053;48.618;10.024;2023-04-08T09:51:58;29.92;;;22.55;;
27642;SDS011;15053;48.618;10.024;2023-04-08T09:54:59;27.05;;;19.10;;
27642;SDS011;15053;48.618;10.024;2023-04-08T10:00:35;24.38;;;16.35;;
27642;SDS011;15053;48.618;10.024;2023-04-08T10:03:09;24.48;;;16.38;;
27642;SDS011;15053;48.618;10.024;2023-04-08T10:05:42;25.23;;;16.13;;
27642;SDS011;15053;48.618;10.024;2023-04-08T10:08:10;21.17;;;14.70;;
27642;SDS011;15053;48.618;10.024;2023-04-08T10:10:40;24.23;;;16.25;;
27642;SDS011;15053;48.618;10.024;2023-04-08T10:13:07;25.25;;;15.65;;
27642;SDS011;15053;48.618;10.024;2023-04-08T10:15:35;24.67;;;16.60;;
27642;SDS011;15053;48.618;10.024;2023-04-08T10:23:01;25.98;;;16.38;;
27642;SDS011;15053;48.618;10.024;2023-04-08T10:25:48;23.10;;;15.35;;
27642;SDS011;15053;48.618;10.024;2023-04-08T10:30:48;20.63;;;14.02;;
27642;SDS011;15053;48.618;10.024;2023-04-08T10:33:16;24.67;;;15.00;;
27642;SDS011;15053;48.618;10.024;2023-04-08T10:35:54;24.42;;;15.18;;
27642;SDS011;15053;48.618;10.024;2023-04-08T10:38:25;23.27;;;15.15;;
27642;SDS011;15053;48.618;10.024;2023-04-08T10:40:52;22.73;;;16.23;;
27642;SDS011;15053;48.618;10.024;2023-04-08T10:43:20;24.15;;;17.70;;
27642;SDS011;15053;48.618;10.024;2023-04-08T10:45:47;26.23;;;16.13;;
27642;SDS011;15053;48.618;10.024;2023-04-08T10:53:33;23.30;;;15.65;;
27642;SDS011;15053;48.618;10.024;2023-04-08T10:56:04;26.20;;;16.92;;
27642;SDS011;15053;48.618;10.024;2023-04-08T10:58:50;26.55;;;15.55;;
27642;SDS011;15053;48.618;10.024;2023-04-08T11:01:18;23.40;;;15.57;;
27642;SDS011;15053;48.618;10.024;2023-04-08T11:03:45;27.80;;;16.83;;
27642;SDS011;15053;48.618;10.024;2023-04-08T11:06:12;23.77;;;16.88;;
27642;SDS011;15053;48.618;10.024;2023-04-08T11:08:38;26.83;;;16.40;;
27642;SDS011;15053;48.618;10.024;2023-04-08T11:11:05;20.83;;;15.07;;
27642;SDS011;15053;48.618;10.024;2023-04-08T11:13:38;23.40;;;14.90;;
27642;SDS011;15053;48.618;10.024;2023-04-08T11:16:16;23.45;;;15.77;;
27642;SDS011;15053;48.618;10.024;2023-04-08T11:18:44;21.92;;;15.18;;
27642;SDS011;15053;48.618;10.024;2023-04-08T11:21:11;22.30;;;15.85;;
27642;SDS011;15053;48.618;10.024;2023-04-08T11:23:38;22.98;;;15.18;;
27642;SDS011;15053;48.618;10.024;2023-04-08T11:26:04;21.67;;;15.45;;
27642;SDS011;15053;48.618;10.024;2023-04-08T11:28:31;23.42;;;15.00;;
27642;SDS011;15053;48.618;10.024;2023-04-08T11:30:59;27.30;;;13.73;;
27642;SDS011;15053;48.618;10.024;2023-04-08T11:33:25;22.15;;;15.25;;
27642;SDS011;15053;48.618;10.024;2023-04-08T11:35:55;22.13;;;14.43;;
27642;SDS011;15053;48.618;10.024;2023-04-08T11:38:22;22.50;;;16.27;;
27642;SDS011;15053;48.618;10.024;2023-04-08T11:40:53;23.00;;;14.98;;
27642;SDS011;15053;48.618;10.024;2023-04-08T11:43:20;27.17;;;14.32;;
27642;SDS011;15053;48.618;10.024;2023-04-08T11:45:48;20.80;;;13.38;;
27642;SDS011;15053;48.618;10.024;2023-04-08T11:48:15;16.77;;;12.43;;
27642;SDS011;15053;48.618;10.024;2023-04-08T11:50:42;22.17;;;13.25;;
27642;SDS011;15053;48.618;10.024;2023-04-08T11:53:19;22.52;;;14.15;;
27642;SDS011;15053;48.618;10.024;2023-04-08T11:55:47;19.25;;;13.88;;
27642;SDS011;15053;48.618;10.024;2023-04-08T11:58:14;32.50;;;14.90;;
27642;SDS011;15053;48.618;10.024;2023-04-08T12:00:41;21.17;;;13.82;;
27642;SDS011;15053;48.618;10.024;2023-04-08T12:03:08;20.40;;;13.20;;
27642;SDS011;15053;48.618;10.024;2023-04-08T12:05:34;17.92;;;12.40;;
27642;SDS011;15053;48.618;10.024;2023-04-08T12:08:01;20.83;;;12.57;;
27642;SDS011;15053;48.618;10.024;2023-04-08T12:10:28;20.35;;;12.23;;
27642;SDS011;15053;48.618;10.024;2023-04-08T12:12:55;19.02;;;11.82;;
27642;SDS011;15053;48.618;10.024;2023-04-08T12:15:21;16.98;;;12.48;;
27642;SDS011;15053;48.618;10.024;2023-04-08T12:17:48;16.05;;;12.63;;
27642;SDS011;15053;48.618;10.024;2023-04-08T12:20:14;20.10;;;11.60;;
27642;SDS011;15053;48.618;10.024;2023-04-08T12:22:42;18.33;;;12.43;;
27642;SDS011;15053;48.618;10.024;2023-04-08T12:25:08;17.95;;;12.90;;
27642;SDS011;15053;48.618;10.024;2023-04-08T12:27:35;17.25;;;12.18;;
27642;SDS011;15053;48.618;10.024;2023-04-08T12:30:02;25.85;;;13.93;;
27642;SDS011;15053;48.618;10.024;2023-04-08T12:32:28;20.58;;;13.75;;
27642;SDS011;15053;48.618;10.024;2023-04-08T12:34:55;16.75;;;11.48;;
27642;SDS011;15053;48.618;10.024;2023-04-08T12:37:22;19.98;;;13.45;;
27642;SDS011;15053;48.618;10.024;2023-04-08T12:39:48;17.73;;;11.88;;
27642;SDS011;15053;48.618;10.024;2023-04-08T12:42:15;15.45;;;11.18;;
27642;SDS011;15053;48.618;10.024;2023-04-08T12:44:41;15.70;;;10.63;;
27642;SDS011;15053;48.618;10.024;2023-04-08T12:47:08;14.68;;;10.00;;
27642;SDS011;15053;48.618;10.024;2023-04-08T12:49:34;19.05;;;12.65;;
27642;SDS011;15053;48.618;10.024;2023-04-08T12:52:14;16.45;;;10.85;;
27642;SDS011;15053;48.618;10.024;2023-04-08T12:54:41;13.75;;;10.93;;
27642;SDS011;15053;48.618;10.024;2023-04-08T12:57:07;15.85;;;10.95;;
27642;SDS011;15053;48.618;10.024;2023-04-08T12:59:34;16.50;;;10.75;;
27642;SDS011;15053;48.618;10.024;2023-04-08T13:02:01;16.63;;;11.15;;
27642;SDS011;15053;48.618;10.024;2023-04-08T13:04:27;19.48;;;15.13;;
27642;SDS011;15053;48.618;10.024;2023-04-08T13:06:54;22.85;;;14.68;;
27642;SDS011;15053;48.618;10.024;2023-04-08T13:09:21;21.00;;;14.13;;
27642;SDS011;15053;48.618;10.024;2023-04-08T13:11:48;29.60;;;19.48;;
27642;SDS011;15053;48.618;10.024;2023-04-08T13:14:14;20.35;;;13.57;;
27642;SDS011;15053;48.618;10.024;2023-04-08T13:16:41;28.80;;;16.85;;
27642;SDS011;15053;48.618;10.024;2023-04-08T13:19:08;20.10;;;13.95;;
27642;SDS011;15053;48.618;10.024;2023-04-08T13:21:35;20.55;;;15.57;;
27642;SDS011;15053;48.618;10.024;2023-04-08T13:24:01;18.65;;;13.23;;
27642;SDS011;15053;48.618;10.024;2023-04-08T13:26:27;15.48;;;11.30;;
27642;SDS011;15053;48.618;10.024;2023-04-08T13:28:54;19.02;;;13.30;;
27642;SDS011;15053;48.618;10.024;2023-04-08T13:31:23;14.82;;;10.90;;
27642;SDS011;15053;48.618;10.024;2023-04-08T13:33:50;14.30;;;11.65;;
27642;SDS011;15053;48.618;10.024;2023-04-08T13:36:16;19.55;;;12.80;;
27642;SDS011;15053;48.618;10.024;2023-04-08T13:38:43;16.20;;;12.25;;
27642;SDS011;15053;48.618;10.024;2023-04-08T13:41:10;20.60;;;14.10;;
27642;SDS011;15053;48.618;10.024;2023-04-08T13:43:37;17.95;;;12.98;;
27642;SDS011;15053;48.618;10.024;2023-04-08T13:46:03;12.48;;;9.82;;
27642;SDS011;15053;48.618;10.024;2023-04-08T13:48:30;15.52;;;10.75;;
27642;SDS011;15053;48.618;10.024;2023-04-08T13:50:56;13.45;;;9.77;;
27642;SDS011;15053;48.618;10.024;2023-04-08T13:53:23;15.23;;;10.45;;
27642;SDS011;15053;48.618;10.024;2023-04-08T13:55:49;16.83;;;10.10;;
27642;SDS011;15053;48.618;10.024;2023-04-08T13:58:20;15.23;;;10.18;;
27642;SDS011;15053;48.618;10.024;2023-04-08T14:00:49;16.38;;;10.45;;
27642;SDS011;15053;48.618;10.024;2023-04-08T14:03:17;13.43;;;9.32;;
27642;SDS011;15053;48.618;10.024;2023-04-08T14:05:44;15.05;;;9.35;;
27642;SDS011;15053;48.618;10.024;2023-04-08T14:08:11;15.43;;;10.43;;
27642;SDS011;15053;48.618;10.024;2023-04-08T14:10:38;15.90;;;10.20;;
27642;SDS011;15053;48.618;10.024;2023-04-08T14:13:06;14.60;;;10.45;;
27642;SDS011;15053;48.618;10.024;2023-04-08T14:15:33;17.05;;;11.32;;
27642;SDS011;15053;48.618;10.024;2023-04-08T14:17:59;14.32;;;9.93;;
27642;SDS011;15053;48.618;10.024;2023-04-08T14:20:26;15.77;;;11.38;;
27642;SDS011;15053;48.618;10.024;2023-04-08T14:22:53;16.95;;;11.05;;
27642;SDS011;15053;48.618;10.024;2023-04-08T14:25:21;13.30;;;9.82;;
27642;SDS011;15053;48.618;10.024;2023-04-08T14:27:48;19.35;;;10.52;;
27642;SDS011;15053;48.618;10.024;2023-04-08T14:30:24;12.90;;;9.75;;
27642;SDS011;15053;48.618;10.024;2023-04-08T14:32:52;14.48;;;10.02;;
27642;SDS011;15053;48.618;10.024;2023-04-08T14:35:19;14.85;;;10.48;;
27642;SDS011;15053;48.618;10.024;2023-04-08T14:37:46;15.35;;;9.90;;
27642;SDS011;15053;48.618;10.024;2023-04-08T14:40:12;16.23;;;10.68;;
27642;SDS011;15053;48.618;10.024;2023-04-08T14:42:39;14.88;;;9.73;;
27642;SDS011;15053;48.618;10.024;2023-04-08T14:45:05;17.73;;;9.85;;